sensor_id;sensor_type;location;lat;lon;timestamp;temperature;humidity
22738;DHT22;11536;50.860;4.286;2022-10-28T00:00:49;20.00;99.90
22738;DHT22;11536;50.860;4.286;2022-10-28T00:03:14;20.00;99.90
22738;DHT22;11536;50.860;4.286;2022-10-28T00:05:40;20.00;99.90
22738;DHT22;11536;50.860;4.286;2022-10-28T00:08:06;20.00;99.90
22738;DHT22;11536;50.860;4.286;2022-10-28T00:10:31;20.00;99.90
22738;DHT22;11536;50.860;4.286;2022-10-28T00:12:57;20.00;99.90
22738;DHT22;11536;50.860;4.286;2022-10-28T00:15:23;20.00;99.90
22738;DHT22;11536;50.860;4.286;2022-10-28T00:17:48;20.00;99.90
22738;DHT22;11536;50.860;4.286;2022-10-28T00:20:14;20.00;99.90
22738;DHT22;11536;50.860;4.286;2022-10-28T00:22:40;20.00;99.90
22738;DHT22;11536;50.860;4.286;2022-10-28T00:25:06;20.00;99.90
22738;DHT22;11536;50.860;4.286;2022-10-28T00:27:32;20.00;99.90
22738;DHT22;11536;50.860;4.286;2022-10-28T00:29:58;20.00;99.90
22738;DHT22;11536;50.860;4.286;2022-10-28T00:32:24;20.00;99.90
22738;DHT22;11536;50.860;4.286;2022-10-28T00:34:49;20.00;99.90
22738;DHT22;11536;50.860;4.286;2022-10-28T00:37:15;20.00;99.90
22738;DHT22;11536;50.860;4.286;2022-10-28T00:39:40;20.00;99.90
22738;DHT22;11536;50.860;4.286;2022-10-28T00:42:06;20.00;99.90
22738;DHT22;11536;50.860;4.286;2022-10-28T00:44:51;20.00;99.90
22738;DHT22;11536;50.860;4.286;2022-10-28T00:49:46;20.00;99.90
22738;DHT22;11536;50.860;4.286;2022-10-28T00:52:19;20.00;99.90
22738;DHT22;11536;50.860;4.286;2022-10-28T00:54:45;19.90;99.90
22738;DHT22;11536;50.860;4.286;2022-10-28T00:57:16;19.90;99.90
22738;DHT22;11536;50.860;4.286;2022-10-28T00:59:49;19.90;99.90
22738;DHT22;11536;50.860;4.286;2022-10-28T01:02:15;19.90;99.90
22738;DHT22;11536;50.860;4.286;2022-10-28T01:04:42;19.90;99.90
22738;DHT22;11536;50.860;4.286;2022-10-28T01:07:09;19.90;99.90
22738;DHT22;11536;50.860;4.286;2022-10-28T01:09:35;19.90;99.90
22738;DHT22;11536;50.860;4.286;2022-10-28T01:30:22;19.80;99.90
22738;DHT22;11536;50.860;4.286;2022-10-28T01:33:02;19.80;99.90
22738;DHT22;11536;50.860;4.286;2022-10-28T01:40:31;19.70;99.90
22738;DHT22;11536;50.860;4.286;2022-10-28T01:43:27;19.70;99.90
22738;DHT22;11536;50.860;4.286;2022-10-28T01:48:53;19.70;99.90
22738;DHT22;11536;50.860;4.286;2022-10-28T01:51:28;19.70;99.90
22738;DHT22;11536;50.860;4.286;2022-10-28T01:53:57;19.70;99.90
22738;DHT22;11536;50.860;4.286;2022-10-28T01:56:28;19.70;99.90
22738;DHT22;11536;50.860;4.286;2022-10-28T01:58:55;19.70;99.90
22738;DHT22;11536;50.860;4.286;2022-10-28T02:01:24;19.60;99.90
22738;DHT22;11536;50.860;4.286;2022-10-28T02:03:51;19.60;99.90
22738;DHT22;11536;50.860;4.286;2022-10-28T02:06:20;19.70;99.90
22738;DHT22;11536;50.860;4.286;2022-10-28T02:17:11;19.60;99.90
22738;DHT22;11536;50.860;4.286;2022-10-28T02:22:37;19.60;99.90
22738;DHT22;11536;50.860;4.286;2022-10-28T02:25:29;19.60;99.90
22738;DHT22;11536;50.860;4.286;2022-10-28T02:27:59;19.60;99.90
22738;DHT22;11536;50.860;4.286;2022-10-28T02:33:16;19.60;99.90
22738;DHT22;11536;50.860;4.286;2022-10-28T02:35:47;19.50;99.90
22738;DHT22;11536;50.860;4.286;2022-10-28T02:38:38;19.60;99.90
22738;DHT22;11536;50.860;4.286;2022-10-28T02:44:00;19.50;99.90
22738;DHT22;11536;50.860;4.286;2022-10-28T02:46:29;19.50;99.90
22738;DHT22;11536;50.860;4.286;2022-10-28T02:49:03;19.50;99.90
22738;DHT22;11536;50.860;4.286;2022-10-28T02:51:39;19.50;99.90
22738;DHT22;11536;50.860;4.286;2022-10-28T02:54:12;19.40;99.90
22738;DHT22;11536;50.860;4.286;2022-10-28T02:56:54;19.40;99.90
22738;DHT22;11536;50.860;4.286;2022-10-28T02:59:23;19.40;99.90
22738;DHT22;11536;50.860;4.286;2022-10-28T03:01:50;19.30;99.90
22738;DHT22;11536;50.860;4.286;2022-10-28T03:04:15;19.30;99.90
22738;DHT22;11536;50.860;4.286;2022-10-28T03:06:41;19.30;99.90
22738;DHT22;11536;50.860;4.286;2022-10-28T03:09:06;19.30;99.90
22738;DHT22;11536;50.860;4.286;2022-10-28T03:11:32;19.30;99.90
22738;DHT22;11536;50.860;4.286;2022-10-28T03:13:58;19.30;99.90
22738;DHT22;11536;50.860;4.286;2022-10-28T03:16:24;19.30;99.90
22738;DHT22;11536;50.860;4.286;2022-10-28T03:18:51;19.30;99.90
22738;DHT22;11536;50.860;4.286;2022-10-28T03:21:17;19.30;99.90
22738;DHT22;11536;50.860;4.286;2022-10-28T03:23:42;19.30;99.90
22738;DHT22;11536;50.860;4.286;2022-10-28T03:26:08;19.30;99.90
22738;DHT22;11536;50.860;4.286;2022-10-28T03:28:33;19.30;99.90
22738;DHT22;11536;50.860;4.286;2022-10-28T03:30:59;19.30;99.90
22738;DHT22;11536;50.860;4.286;2022-10-28T03:33:24;19.20;99.90
22738;DHT22;11536;50.860;4.286;2022-10-28T03:35:50;19.20;99.90
22738;DHT22;11536;50.860;4.286;2022-10-28T03:38:16;19.30;99.90
22738;DHT22;11536;50.860;4.286;2022-10-28T03:40:41;19.20;99.90
22738;DHT22;11536;50.860;4.286;2022-10-28T03:43:07;19.20;99.90
22738;DHT22;11536;50.860;4.286;2022-10-28T03:45:32;19.20;99.90
22738;DHT22;11536;50.860;4.286;2022-10-28T03:47:58;19.20;99.90
22738;DHT22;11536;50.860;4.286;2022-10-28T03:50:23;19.20;99.90
22738;DHT22;11536;50.860;4.286;2022-10-28T03:52:49;19.20;99.90
22738;DHT22;11536;50.860;4.286;2022-10-28T03:55:15;19.20;99.90
22738;DHT22;11536;50.860;4.286;2022-10-28T03:57:41;19.20;99.90
22738;DHT22;11536;50.860;4.286;2022-10-28T04:00:07;19.20;99.90
22738;DHT22;11536;50.860;4.286;2022-10-28T04:02:33;19.10;99.90
22738;DHT22;11536;50.860;4.286;2022-10-28T04:04:59;19.10;99.90
22738;DHT22;11536;50.860;4.286;2022-10-28T04:07:24;19.10;99.90
22738;DHT22;11536;50.860;4.286;2022-10-28T04:09:50;19.10;99.90
22738;DHT22;11536;50.860;4.286;2022-10-28T04:12:16;19.10;99.90
22738;DHT22;11536;50.860;4.286;2022-10-28T04:14:42;19.00;99.90
22738;DHT22;11536;50.860;4.286;2022-10-28T04:17:08;19.10;99.90
22738;DHT22;11536;50.860;4.286;2022-10-28T04:19:33;19.00;99.90
22738;DHT22;11536;50.860;4.286;2022-10-28T04:21:59;19.00;99.90
22738;DHT22;11536;50.860;4.286;2022-10-28T04:24:25;19.00;99.90
22738;DHT22;11536;50.860;4.286;2022-10-28T04:26:50;19.00;99.90
22738;DHT22;11536;50.860;4.286;2022-10-28T04:29:16;19.00;99.90
22738;DHT22;11536;50.860;4.286;2022-10-28T04:31:42;19.00;99.90
22738;DHT22;11536;50.860;4.286;2022-10-28T04:34:07;19.00;99.90
22738;DHT22;11536;50.860;4.286;2022-10-28T04:36:33;19.00;99.90
22738;DHT22;11536;50.860;4.286;2022-10-28T04:38:58;19.00;99.90
22738;DHT22;11536;50.860;4.286;2022-10-28T04:41:24;19.00;99.90
22738;DHT22;11536;50.860;4.286;2022-10-28T04:43:49;19.00;99.90
22738;DHT22;11536;50.860;4.286;2022-10-28T04:46:15;18.90;99.90
22738;DHT22;11536;50.860;4.286;2022-10-28T04:48:41;18.90;99.90
22738;DHT22;11536;50.860;4.286;2022-10-28T04:51:06;18.90;99.90
22738;DHT22;11536;50.860;4.286;2022-10-28T04:53:32;18.80;99.90
22738;DHT22;11536;50.860;4.286;2022-10-28T04:55:58;18.80;99.90
22738;DHT22;11536;50.860;4.286;2022-10-28T04:58:24;18.80;99.90
22738;DHT22;11536;50.860;4.286;2022-10-28T05:00:50;18.80;99.90
22738;DHT22;11536;50.860;4.286;2022-10-28T05:03:15;18.80;99.90
22738;DHT22;11536;50.860;4.286;2022-10-28T05:05:41;18.80;99.90
22738;DHT22;11536;50.860;4.286;2022-10-28T05:08:06;18.80;99.90
22738;DHT22;11536;50.860;4.286;2022-10-28T05:10:32;18.80;99.90
22738;DHT22;11536;50.860;4.286;2022-10-28T05:12:58;18.80;99.90
22738;DHT22;11536;50.860;4.286;2022-10-28T05:15:24;18.80;99.90
22738;DHT22;11536;50.860;4.286;2022-10-28T05:17:51;18.80;99.90
22738;DHT22;11536;50.860;4.286;2022-10-28T05:20:18;18.80;99.90
22738;DHT22;11536;50.860;4.286;2022-10-28T05:22:49;18.90;99.90
22738;DHT22;11536;50.860;4.286;2022-10-28T05:25:16;18.90;99.90
22738;DHT22;11536;50.860;4.286;2022-10-28T05:27:42;18.80;99.90
22738;DHT22;11536;50.860;4.286;2022-10-28T05:30:09;18.80;99.90
22738;DHT22;11536;50.860;4.286;2022-10-28T05:32:35;18.80;99.90
22738;DHT22;11536;50.860;4.286;2022-10-28T05:35:01;18.80;99.90
22738;DHT22;11536;50.860;4.286;2022-10-28T05:37:26;18.80;99.90
22738;DHT22;11536;50.860;4.286;2022-10-28T05:39:52;18.80;99.90
22738;DHT22;11536;50.860;4.286;2022-10-28T05:42:17;18.80;99.90
22738;DHT22;11536;50.860;4.286;2022-10-28T05:44:43;18.80;99.90
22738;DHT22;11536;50.860;4.286;2022-10-28T05:47:08;18.80;99.90
22738;DHT22;11536;50.860;4.286;2022-10-28T05:49:34;18.80;99.90
22738;DHT22;11536;50.860;4.286;2022-10-28T05:52:00;18.80;99.90
22738;DHT22;11536;50.860;4.286;2022-10-28T05:54:26;18.80;99.90
22738;DHT22;11536;50.860;4.286;2022-10-28T05:56:51;18.80;99.90
22738;DHT22;11536;50.860;4.286;2022-10-28T05:59:17;18.80;99.90
22738;DHT22;11536;50.860;4.286;2022-10-28T06:01:42;18.80;99.90
22738;DHT22;11536;50.860;4.286;2022-10-28T06:04:08;18.80;99.90
22738;DHT22;11536;50.860;4.286;2022-10-28T06:06:33;18.80;99.90
22738;DHT22;11536;50.860;4.286;2022-10-28T06:08:59;18.70;99.90
22738;DHT22;11536;50.860;4.286;2022-10-28T06:11:25;18.80;99.90
22738;DHT22;11536;50.860;4.286;2022-10-28T06:13:50;18.80;99.90
22738;DHT22;11536;50.860;4.286;2022-10-28T06:16:16;18.80;99.90
22738;DHT22;11536;50.860;4.286;2022-10-28T06:18:41;18.70;99.90
22738;DHT22;11536;50.860;4.286;2022-10-28T06:21:07;18.80;99.90
22738;DHT22;11536;50.860;4.286;2022-10-28T06:23:33;18.70;99.90
22738;DHT22;11536;50.860;4.286;2022-10-28T06:26:00;18.70;99.90
22738;DHT22;11536;50.860;4.286;2022-10-28T06:28:26;18.80;99.90
22738;DHT22;11536;50.860;4.286;2022-10-28T06:30:52;18.80;99.90
22738;DHT22;11536;50.860;4.286;2022-10-28T06:33:18;18.80;99.90
22738;DHT22;11536;50.860;4.286;2022-10-28T06:35:44;18.70;99.90
22738;DHT22;11536;50.860;4.286;2022-10-28T06:38:09;18.70;99.90
22738;DHT22;11536;50.860;4.286;2022-10-28T06:40:35;18.70;99.90
22738;DHT22;11536;50.860;4.286;2022-10-28T06:43:05;18.70;99.90
22738;DHT22;11536;50.860;4.286;2022-10-28T06:45:33;18.70;99.90
22738;DHT22;11536;50.860;4.286;2022-10-28T06:48:01;18.80;99.90
22738;DHT22;11536;50.860;4.286;2022-10-28T06:50:27;18.70;99.90
22738;DHT22;11536;50.860;4.286;2022-10-28T06:52:57;18.70;99.90
22738;DHT22;11536;50.860;4.286;2022-10-28T06:55:25;18.80;99.90
22738;DHT22;11536;50.860;4.286;2022-10-28T06:57:50;18.80;99.90
22738;DHT22;11536;50.860;4.286;2022-10-28T07:00:16;18.80;99.90
22738;DHT22;11536;50.860;4.286;2022-10-28T07:02:42;18.80;99.90
22738;DHT22;11536;50.860;4.286;2022-10-28T07:05:08;18.80;99.90
22738;DHT22;11536;50.860;4.286;2022-10-28T07:07:35;18.80;99.90
22738;DHT22;11536;50.860;4.286;2022-10-28T07:10:04;18.90;99.90
22738;DHT22;11536;50.860;4.286;2022-10-28T07:12:30;18.80;99.90
22738;DHT22;11536;50.860;4.286;2022-10-28T07:14:56;18.90;99.90
22738;DHT22;11536;50.860;4.286;2022-10-28T07:17:21;18.90;99.90
22738;DHT22;11536;50.860;4.286;2022-10-28T07:19:47;18.90;99.90
22738;DHT22;11536;50.860;4.286;2022-10-28T07:22:12;18.90;99.90
22738;DHT22;11536;50.860;4.286;2022-10-28T07:24:38;19.00;99.90
22738;DHT22;11536;50.860;4.286;2022-10-28T07:27:03;19.00;99.90
22738;DHT22;11536;50.860;4.286;2022-10-28T07:29:29;19.00;99.90
22738;DHT22;11536;50.860;4.286;2022-10-28T07:31:54;19.00;99.90
22738;DHT22;11536;50.860;4.286;2022-10-28T07:34:20;19.00;99.90
22738;DHT22;11536;50.860;4.286;2022-10-28T07:36:50;19.10;99.90
22738;DHT22;11536;50.860;4.286;2022-10-28T07:39:16;19.10;99.90
22738;DHT22;11536;50.860;4.286;2022-10-28T07:41:42;19.10;99.90
22738;DHT22;11536;50.860;4.286;2022-10-28T07:44:08;19.10;99.90
22738;DHT22;11536;50.860;4.286;2022-10-28T07:46:34;19.20;99.90
22738;DHT22;11536;50.860;4.286;2022-10-28T07:49:00;19.20;99.90
22738;DHT22;11536;50.860;4.286;2022-10-28T07:51:25;19.20;99.90
22738;DHT22;11536;50.860;4.286;2022-10-28T07:53:51;19.20;99.90
22738;DHT22;11536;50.860;4.286;2022-10-28T07:56:17;19.30;99.90
22738;DHT22;11536;50.860;4.286;2022-10-28T07:58:43;19.30;99.90
22738;DHT22;11536;50.860;4.286;2022-10-28T08:01:11;19.40;99.90
22738;DHT22;11536;50.860;4.286;2022-10-28T08:03:37;19.40;99.90
22738;DHT22;11536;50.860;4.286;2022-10-28T08:06:06;19.40;99.90
22738;DHT22;11536;50.860;4.286;2022-10-28T08:08:32;19.40;99.90
22738;DHT22;11536;50.860;4.286;2022-10-28T08:10:58;19.40;99.90
22738;DHT22;11536;50.860;4.286;2022-10-28T08:13:23;19.40;99.90
22738;DHT22;11536;50.860;4.286;2022-10-28T08:15:53;19.50;99.90
22738;DHT22;11536;50.860;4.286;2022-10-28T08:18:19;19.50;99.90
22738;DHT22;11536;50.860;4.286;2022-10-28T08:20:45;19.60;99.90
22738;DHT22;11536;50.860;4.286;2022-10-28T08:23:11;19.70;99.90
22738;DHT22;11536;50.860;4.286;2022-10-28T08:25:36;19.60;99.90
22738;DHT22;11536;50.860;4.286;2022-10-28T08:28:02;19.60;99.90
22738;DHT22;11536;50.860;4.286;2022-10-28T08:30:27;19.70;99.90
22738;DHT22;11536;50.860;4.286;2022-10-28T08:32:56;19.70;99.90
22738;DHT22;11536;50.860;4.286;2022-10-28T08:35:21;19.70;99.90
22738;DHT22;11536;50.860;4.286;2022-10-28T08:37:51;19.70;99.90
22738;DHT22;11536;50.860;4.286;2022-10-28T08:40:18;19.70;99.90
22738;DHT22;11536;50.860;4.286;2022-10-28T08:42:47;19.80;99.90
22738;DHT22;11536;50.860;4.286;2022-10-28T08:48:18;19.80;99.90
22738;DHT22;11536;50.860;4.286;2022-10-28T08:50:49;19.80;99.90
22738;DHT22;11536;50.860;4.286;2022-10-28T08:53:22;19.80;99.90
22738;DHT22;11536;50.860;4.286;2022-10-28T08:55:51;19.80;99.90
22738;DHT22;11536;50.860;4.286;2022-10-28T08:58:32;19.80;99.90
22738;DHT22;11536;50.860;4.286;2022-10-28T09:01:00;19.90;99.90
22738;DHT22;11536;50.860;4.286;2022-10-28T09:03:28;19.90;99.90
22738;DHT22;11536;50.860;4.286;2022-10-28T09:06:05;20.00;99.90
22738;DHT22;11536;50.860;4.286;2022-10-28T09:08:44;20.00;99.90
22738;DHT22;11536;50.860;4.286;2022-10-28T09:11:17;20.10;99.90
22738;DHT22;11536;50.860;4.286;2022-10-28T09:16:51;20.20;99.90
22738;DHT22;11536;50.860;4.286;2022-10-28T09:22:44;20.30;99.90
22738;DHT22;11536;50.860;4.286;2022-10-28T09:30:02;20.50;99.90
22738;DHT22;11536;50.860;4.286;2022-10-28T09:35:02;20.60;99.90
22738;DHT22;11536;50.860;4.286;2022-10-28T09:37:34;20.70;99.90
22738;DHT22;11536;50.860;4.286;2022-10-28T09:40:36;20.70;99.90
22738;DHT22;11536;50.860;4.286;2022-10-28T09:43:30;20.80;99.90
22738;DHT22;11536;50.860;4.286;2022-10-28T09:46:14;20.80;99.90
22738;DHT22;11536;50.860;4.286;2022-10-28T09:48:50;20.90;99.90
22738;DHT22;11536;50.860;4.286;2022-10-28T09:54:00;21.00;99.90
22738;DHT22;11536;50.860;4.286;2022-10-28T09:56:27;21.00;99.90
22738;DHT22;11536;50.860;4.286;2022-10-28T09:58:55;21.10;99.90
22738;DHT22;11536;50.860;4.286;2022-10-28T10:01:22;21.10;99.90
22738;DHT22;11536;50.860;4.286;2022-10-28T10:03:49;21.20;99.90
22738;DHT22;11536;50.860;4.286;2022-10-28T10:06:36;21.30;99.90
22738;DHT22;11536;50.860;4.286;2022-10-28T10:09:02;21.40;99.90
22738;DHT22;11536;50.860;4.286;2022-10-28T10:11:39;21.50;99.90
22738;DHT22;11536;50.860;4.286;2022-10-28T10:14:12;21.60;99.90
22738;DHT22;11536;50.860;4.286;2022-10-28T10:16:44;21.60;99.90
22738;DHT22;11536;50.860;4.286;2022-10-28T10:19:11;21.60;99.90
22738;DHT22;11536;50.860;4.286;2022-10-28T10:24:21;21.70;99.90
22738;DHT22;11536;50.860;4.286;2022-10-28T10:26:47;21.70;99.90
22738;DHT22;11536;50.860;4.286;2022-10-28T10:29:12;21.80;99.90
22738;DHT22;11536;50.860;4.286;2022-10-28T10:31:38;21.80;99.90
22738;DHT22;11536;50.860;4.286;2022-10-28T10:34:04;21.90;99.90
22738;DHT22;11536;50.860;4.286;2022-10-28T10:36:30;21.90;99.90
22738;DHT22;11536;50.860;4.286;2022-10-28T10:38:57;22.00;99.90
22738;DHT22;11536;50.860;4.286;2022-10-28T10:41:43;22.00;99.90
22738;DHT22;11536;50.860;4.286;2022-10-28T10:49:33;22.20;99.90
22738;DHT22;11536;50.860;4.286;2022-10-28T10:52:20;22.20;99.90
22738;DHT22;11536;50.860;4.286;2022-10-28T10:55:02;22.30;99.90
22738;DHT22;11536;50.860;4.286;2022-10-28T10:57:28;22.30;99.90
22738;DHT22;11536;50.860;4.286;2022-10-28T10:59:55;22.40;99.90
22738;DHT22;11536;50.860;4.286;2022-10-28T11:02:30;22.40;99.90
22738;DHT22;11536;50.860;4.286;2022-10-28T11:05:01;22.40;99.90
22738;DHT22;11536;50.860;4.286;2022-10-28T11:07:29;22.50;99.90
22738;DHT22;11536;50.860;4.286;2022-10-28T11:09:56;22.50;99.90
22738;DHT22;11536;50.860;4.286;2022-10-28T11:12:28;22.50;99.90
22738;DHT22;11536;50.860;4.286;2022-10-28T11:14:55;22.50;99.90
22738;DHT22;11536;50.860;4.286;2022-10-28T11:17:24;22.60;99.90
22738;DHT22;11536;50.860;4.286;2022-10-28T11:19:53;22.60;99.90
22738;DHT22;11536;50.860;4.286;2022-10-28T11:23:10;22.60;99.90
22738;DHT22;11536;50.860;4.286;2022-10-28T11:25:42;22.60;99.90
22738;DHT22;11536;50.860;4.286;2022-10-28T11:33:18;22.60;99.90
22738;DHT22;11536;50.860;4.286;2022-10-28T11:36:05;22.70;99.90
22738;DHT22;11536;50.860;4.286;2022-10-28T11:44:12;22.70;99.90
22738;DHT22;11536;50.860;4.286;2022-10-28T11:49:27;22.80;99.90
22738;DHT22;11536;50.860;4.286;2022-10-28T11:54:55;22.90;99.90
22738;DHT22;11536;50.860;4.286;2022-10-28T12:00:49;22.80;99.90
22738;DHT22;11536;50.860;4.286;2022-10-28T12:03:33;22.80;99.90
22738;DHT22;11536;50.860;4.286;2022-10-28T12:11:50;22.70;99.90
22738;DHT22;11536;50.860;4.286;2022-10-28T12:14:37;22.70;99.90
22738;DHT22;11536;50.860;4.286;2022-10-28T12:20:02;22.70;99.90
22738;DHT22;11536;50.860;4.286;2022-10-28T12:22:37;22.70;99.90
22738;DHT22;11536;50.860;4.286;2022-10-28T12:25:14;22.80;99.90
22738;DHT22;11536;50.860;4.286;2022-10-28T12:27:43;22.80;99.90
22738;DHT22;11536;50.860;4.286;2022-10-28T12:30:29;22.80;99.90
22738;DHT22;11536;50.860;4.286;2022-10-28T12:33:00;22.80;99.90
22738;DHT22;11536;50.860;4.286;2022-10-28T12:35:33;22.90;99.90
22738;DHT22;11536;50.860;4.286;2022-10-28T12:38:01;22.90;99.90
22738;DHT22;11536;50.860;4.286;2022-10-28T12:43:18;23.00;99.90
22738;DHT22;11536;50.860;4.286;2022-10-28T12:45:49;23.00;99.90
22738;DHT22;11536;50.860;4.286;2022-10-28T12:51:24;23.20;99.90
22738;DHT22;11536;50.860;4.286;2022-10-28T12:56:47;23.40;99.90
22738;DHT22;11536;50.860;4.286;2022-10-28T12:59:25;23.40;99.90
22738;DHT22;11536;50.860;4.286;2022-10-28T13:01:52;23.40;99.90
22738;DHT22;11536;50.860;4.286;2022-10-28T13:04:18;23.50;99.90
22738;DHT22;11536;50.860;4.286;2022-10-28T13:07:22;23.60;99.90
22738;DHT22;11536;50.860;4.286;2022-10-28T13:09:58;23.70;99.90
22738;DHT22;11536;50.860;4.286;2022-10-28T13:13:28;23.80;99.90
22738;DHT22;11536;50.860;4.286;2022-10-28T13:17:55;23.80;99.90
22738;DHT22;11536;50.860;4.286;2022-10-28T13:23:38;23.80;99.90
22738;DHT22;11536;50.860;4.286;2022-10-28T13:26:07;23.80;99.90
22738;DHT22;11536;50.860;4.286;2022-10-28T13:28:46;23.80;99.90
22738;DHT22;11536;50.860;4.286;2022-10-28T13:31:12;23.80;99.90
22738;DHT22;11536;50.860;4.286;2022-10-28T13:33:55;23.80;99.90
22738;DHT22;11536;50.860;4.286;2022-10-28T13:36:36;23.70;99.90
22738;DHT22;11536;50.860;4.286;2022-10-28T13:44:59;23.60;99.90
22738;DHT22;11536;50.860;4.286;2022-10-28T13:47:34;23.60;99.90
22738;DHT22;11536;50.860;4.286;2022-10-28T13:52:37;23.60;99.90
22738;DHT22;11536;50.860;4.286;2022-10-28T13:55:25;23.60;99.90
22738;DHT22;11536;50.860;4.286;2022-10-28T13:57:59;23.60;99.90
22738;DHT22;11536;50.860;4.286;2022-10-28T14:03:01;23.60;99.90
22738;DHT22;11536;50.860;4.286;2022-10-28T14:08:32;23.60;99.90
22738;DHT22;11536;50.860;4.286;2022-10-28T14:13:53;23.70;99.90
22738;DHT22;11536;50.860;4.286;2022-10-28T14:16:29;23.80;99.90
22738;DHT22;11536;50.860;4.286;2022-10-28T14:22:01;23.70;99.90
22738;DHT22;11536;50.860;4.286;2022-10-28T14:24:38;23.60;99.90
22738;DHT22;11536;50.860;4.286;2022-10-28T14:30:09;23.60;99.90
22738;DHT22;11536;50.860;4.286;2022-10-28T14:32:49;23.60;99.90
22738;DHT22;11536;50.860;4.286;2022-10-28T14:35:25;23.60;99.90
22738;DHT22;11536;50.860;4.286;2022-10-28T14:38:15;23.50;99.90
22738;DHT22;11536;50.860;4.286;2022-10-28T14:49:33;23.40;99.90
22738;DHT22;11536;50.860;4.286;2022-10-28T14:52:06;23.40;99.90
22738;DHT22;11536;50.860;4.286;2022-10-28T14:57:10;23.30;99.90
22738;DHT22;11536;50.860;4.286;2022-10-28T14:59:39;23.30;99.90
22738;DHT22;11536;50.860;4.286;2022-10-28T15:02:23;23.30;99.90
22738;DHT22;11536;50.860;4.286;2022-10-28T15:07:30;23.20;99.90
22738;DHT22;11536;50.860;4.286;2022-10-28T15:09:56;23.20;99.90
22738;DHT22;11536;50.860;4.286;2022-10-28T15:12:24;23.20;99.90
22738;DHT22;11536;50.860;4.286;2022-10-28T15:14:55;23.10;99.90
22738;DHT22;11536;50.860;4.286;2022-10-28T15:17:35;23.10;99.90
22738;DHT22;11536;50.860;4.286;2022-10-28T15:20:17;23.10;99.90
22738;DHT22;11536;50.860;4.286;2022-10-28T15:22:43;23.10;99.90
22738;DHT22;11536;50.860;4.286;2022-10-28T15:25:12;23.00;99.90
22738;DHT22;11536;50.860;4.286;2022-10-28T15:27:41;23.00;99.90
22738;DHT22;11536;50.860;4.286;2022-10-28T15:30:24;23.00;99.90
22738;DHT22;11536;50.860;4.286;2022-10-28T15:32:54;22.90;99.90
22738;DHT22;11536;50.860;4.286;2022-10-28T15:35:43;22.90;99.90
22738;DHT22;11536;50.860;4.286;2022-10-28T15:40:59;22.80;99.90
22738;DHT22;11536;50.860;4.286;2022-10-28T15:43:27;22.70;99.90
22738;DHT22;11536;50.860;4.286;2022-10-28T15:45:53;22.70;99.90
22738;DHT22;11536;50.860;4.286;2022-10-28T15:48:26;22.70;99.90
22738;DHT22;11536;50.860;4.286;2022-10-28T15:51:30;22.70;99.90
22738;DHT22;11536;50.860;4.286;2022-10-28T15:54:17;22.70;99.90
22738;DHT22;11536;50.860;4.286;2022-10-28T15:56:56;22.60;99.90
22738;DHT22;11536;50.860;4.286;2022-10-28T15:59:23;22.60;99.90
22738;DHT22;11536;50.860;4.286;2022-10-28T16:01:50;22.50;99.90
22738;DHT22;11536;50.860;4.286;2022-10-28T16:06:48;22.50;99.90
22738;DHT22;11536;50.860;4.286;2022-10-28T16:09:31;22.50;99.90
22738;DHT22;11536;50.860;4.286;2022-10-28T16:12:10;22.40;99.90
22738;DHT22;11536;50.860;4.286;2022-10-28T16:14:39;22.40;99.90
22738;DHT22;11536;50.860;4.286;2022-10-28T16:17:20;22.30;99.90
22738;DHT22;11536;50.860;4.286;2022-10-28T16:20:19;22.30;99.90
22738;DHT22;11536;50.860;4.286;2022-10-28T16:22:46;22.30;99.90
22738;DHT22;11536;50.860;4.286;2022-10-28T16:25:17;22.20;99.90
22738;DHT22;11536;50.860;4.286;2022-10-28T16:27:44;22.20;99.90
22738;DHT22;11536;50.860;4.286;2022-10-28T16:30:10;22.10;99.90
22738;DHT22;11536;50.860;4.286;2022-10-28T16:35:07;22.00;99.90
22738;DHT22;11536;50.860;4.286;2022-10-28T16:37:37;21.90;99.90
22738;DHT22;11536;50.860;4.286;2022-10-28T16:40:03;21.90;99.90
22738;DHT22;11536;50.860;4.286;2022-10-28T16:42:30;21.80;99.90
22738;DHT22;11536;50.860;4.286;2022-10-28T16:44:56;21.80;99.90
22738;DHT22;11536;50.860;4.286;2022-10-28T16:47:23;21.70;99.90
22738;DHT22;11536;50.860;4.286;2022-10-28T16:49:54;21.70;99.90
22738;DHT22;11536;50.860;4.286;2022-10-28T16:52:21;21.60;99.90
22738;DHT22;11536;50.860;4.286;2022-10-28T16:54:48;21.60;99.90
22738;DHT22;11536;50.860;4.286;2022-10-28T16:57:15;21.60;99.90
22738;DHT22;11536;50.860;4.286;2022-10-28T16:59:41;21.50;99.90
22738;DHT22;11536;50.860;4.286;2022-10-28T17:02:23;21.50;99.90
22738;DHT22;11536;50.860;4.286;2022-10-28T17:04:50;21.50;99.90
22738;DHT22;11536;50.860;4.286;2022-10-28T17:07:16;21.50;99.90
22738;DHT22;11536;50.860;4.286;2022-10-28T17:09:43;21.50;99.90
22738;DHT22;11536;50.860;4.286;2022-10-28T17:12:23;21.50;99.90
22738;DHT22;11536;50.860;4.286;2022-10-28T17:14:58;21.50;99.90
22738;DHT22;11536;50.860;4.286;2022-10-28T17:17:24;21.40;99.90
22738;DHT22;11536;50.860;4.286;2022-10-28T17:19:49;21.40;99.90
22738;DHT22;11536;50.860;4.286;2022-10-28T17:22:15;21.40;99.90
22738;DHT22;11536;50.860;4.286;2022-10-28T17:24:41;21.40;99.90
22738;DHT22;11536;50.860;4.286;2022-10-28T17:27:07;21.30;99.90
22738;DHT22;11536;50.860;4.286;2022-10-28T17:29:33;21.30;99.90
22738;DHT22;11536;50.860;4.286;2022-10-28T17:31:59;21.30;99.90
22738;DHT22;11536;50.860;4.286;2022-10-28T17:34:30;21.30;99.90
22738;DHT22;11536;50.860;4.286;2022-10-28T17:36:55;21.20;99.90
22738;DHT22;11536;50.860;4.286;2022-10-28T17:39:21;21.20;99.90
22738;DHT22;11536;50.860;4.286;2022-10-28T17:41:46;21.20;99.90
22738;DHT22;11536;50.860;4.286;2022-10-28T17:44:12;21.20;99.90
22738;DHT22;11536;50.860;4.286;2022-10-28T17:46:40;21.20;99.90
22738;DHT22;11536;50.860;4.286;2022-10-28T17:49:05;21.20;99.90
22738;DHT22;11536;50.860;4.286;2022-10-28T17:51:34;21.20;99.90
22738;DHT22;11536;50.860;4.286;2022-10-28T17:54:00;21.20;99.90
22738;DHT22;11536;50.860;4.286;2022-10-28T17:56:25;21.20;99.90
22738;DHT22;11536;50.860;4.286;2022-10-28T17:58:52;21.20;99.90
22738;DHT22;11536;50.860;4.286;2022-10-28T18:01:18;21.20;99.90
22738;DHT22;11536;50.860;4.286;2022-10-28T18:03:48;21.10;99.90
22738;DHT22;11536;50.860;4.286;2022-10-28T18:06:13;21.10;99.90
22738;DHT22;11536;50.860;4.286;2022-10-28T18:08:41;21.10;99.90
22738;DHT22;11536;50.860;4.286;2022-10-28T18:11:09;21.10;99.90
22738;DHT22;11536;50.860;4.286;2022-10-28T18:13:37;21.10;99.90
22738;DHT22;11536;50.860;4.286;2022-10-28T18:16:14;21.00;99.90
22738;DHT22;11536;50.860;4.286;2022-10-28T18:18:40;21.00;99.90
22738;DHT22;11536;50.860;4.286;2022-10-28T18:21:06;20.90;99.90
22738;DHT22;11536;50.860;4.286;2022-10-28T18:23:34;20.90;99.90
22738;DHT22;11536;50.860;4.286;2022-10-28T18:28:29;20.80;99.90